createdAt,value
2019-05-23T00:01:44.567Z,8.27
2019-05-23T00:04:42.828Z,8.40
2019-05-23T00:07:29.655Z,8.09
2019-05-23T00:10:22.409Z,8.11
2019-05-23T00:13:03.440Z,8.14
2019-05-23T00:15:35.392Z,7.97
2019-05-23T00:18:05.707Z,8.11
2019-05-23T00:20:33.722Z,7.97
2019-05-23T00:23:01.683Z,8.04
2019-05-23T00:25:29.791Z,7.96
2019-05-23T00:27:57.650Z,8.17
2019-05-23T00:30:31.815Z,8.03
2019-05-23T00:32:59.140Z,8.01
2019-05-23T00:35:25.757Z,8.00
2019-05-23T00:37:53.111Z,7.77
2019-05-23T00:40:20.796Z,7.67
2019-05-23T00:42:47.895Z,7.83
2019-05-23T00:45:16.807Z,7.97
2019-05-23T00:47:46.115Z,7.75
2019-05-23T00:50:16.293Z,7.65
2019-05-23T00:52:43.020Z,7.70
2019-05-23T00:55:12.018Z,7.81
2019-05-23T00:57:39.367Z,7.86
2019-05-23T01:00:09.220Z,7.84
2019-05-23T01:02:38.681Z,7.76
2019-05-23T01:05:06.446Z,7.91
2019-05-23T01:07:34.304Z,7.93
2019-05-23T01:10:02.200Z,7.95
2019-05-23T01:12:30.453Z,8.04
2019-05-23T01:14:57.586Z,7.97
2019-05-23T01:17:24.993Z,7.95
2019-05-23T01:19:54.109Z,7.87
2019-05-23T01:22:21.352Z,7.96
2019-05-23T01:24:51.594Z,7.88
2019-05-23T01:27:18.715Z,7.99
2019-05-23T01:29:50.069Z,8.07
2019-05-23T01:32:39.115Z,8.19
2019-05-23T01:35:09.190Z,8.14
2019-05-23T01:37:37.179Z,8.06
2019-05-23T01:40:04.681Z,8.14
2019-05-23T01:42:32.235Z,8.15
2019-05-23T01:44:59.507Z,8.30
2019-05-23T01:47:26.577Z,8.28
2019-05-23T01:49:54.019Z,8.28
2019-05-23T01:52:21.602Z,8.29
2019-05-23T01:54:48.215Z,8.29
2019-05-23T01:57:15.134Z,8.33
2019-05-23T01:59:42.187Z,8.19
2019-05-23T02:02:10.589Z,8.17
2019-05-23T02:04:37.199Z,8.25
2019-05-23T02:07:04.385Z,8.23
2019-05-23T02:09:31.515Z,8.24
2019-05-23T02:11:58.234Z,8.22
2019-05-23T02:14:25.799Z,8.18
2019-05-23T02:16:53.203Z,8.09
2019-05-23T02:19:20.360Z,8.12
2019-05-23T02:21:47.549Z,8.12
2019-05-23T02:24:16.259Z,8.11
2019-05-23T02:26:43.917Z,8.10
2019-05-23T02:29:11.013Z,7.90
2019-05-23T02:31:40.471Z,7.78
2019-05-23T02:34:08.520Z,7.72
2019-05-23T02:36:35.412Z,7.69
2019-05-23T02:39:30.570Z,7.69
2019-05-23T02:42:04.034Z,7.75
2019-05-23T02:44:32.462Z,7.67
2019-05-23T02:47:04.337Z,7.63
2019-05-23T02:49:32.942Z,7.60
2019-05-23T02:52:13.609Z,7.71
2019-05-23T02:54:40.389Z,7.56
2019-05-23T02:57:09.614Z,7.51
2019-05-23T02:59:44.775Z,7.48
2019-05-23T03:02:57.600Z,7.53
2019-05-23T03:05:25.439Z,7.58
2019-05-23T03:07:53.178Z,7.58
2019-05-23T03:10:20.440Z,7.80
2019-05-23T03:12:48.846Z,7.68
2019-05-23T03:15:16.181Z,7.71
2019-05-23T03:17:49.470Z,7.76
2019-05-23T03:20:16.100Z,7.82
2019-05-23T03:22:47.545Z,7.81
2019-05-23T03:25:49.903Z,7.89
2019-05-23T03:28:18.466Z,7.82
2019-05-23T03:30:47.168Z,7.70
2019-05-23T03:33:15.260Z,7.71
2019-05-23T03:35:43.622Z,7.62
2019-05-23T03:38:10.472Z,7.70
2019-05-23T03:40:37.232Z,7.84
2019-05-23T03:43:04.442Z,7.77
2019-05-23T03:45:39.197Z,7.89
2019-05-23T03:48:06.487Z,8.03
2019-05-23T03:50:34.933Z,7.94
2019-05-23T03:53:02.477Z,8.00
2019-05-23T03:55:30.046Z,7.96
2019-05-23T03:57:56.779Z,7.90
2019-05-23T04:00:26.161Z,8.00
2019-05-23T04:02:53.795Z,8.02
2019-05-23T04:05:21.294Z,8.00
2019-05-23T04:07:48.112Z,8.18
2019-05-23T04:10:15.027Z,8.23
2019-05-23T04:12:42.145Z,8.32
2019-05-23T04:15:10.385Z,8.44
2019-05-23T04:17:39.219Z,8.53
2019-05-23T04:20:06.986Z,8.57
2019-05-23T04:22:34.062Z,8.35
2019-05-23T04:25:02.387Z,8.59
2019-05-23T04:27:29.610Z,8.56
2019-05-23T04:29:56.550Z,8.68
2019-05-23T04:32:23.174Z,8.73
2019-05-23T04:34:50.365Z,8.69
2019-05-23T04:37:17.116Z,8.89
2019-05-23T04:39:43.758Z,8.97
2019-05-23T04:42:11.135Z,8.98
2019-05-23T04:44:38.283Z,8.97
2019-05-23T04:47:05.599Z,8.84
2019-05-23T04:49:32.356Z,9.02
2019-05-23T04:51:59.011Z,9.09
2019-05-23T04:54:26.348Z,9.38
2019-05-23T04:56:53.118Z,9.58
2019-05-23T04:59:19.851Z,9.89
2019-05-23T05:01:46.841Z,10.20
2019-05-23T05:04:13.792Z,10.49
2019-05-23T05:06:41.436Z,10.61
2019-05-23T05:09:10.650Z,10.79
2019-05-23T05:11:38.010Z,11.38
2019-05-23T05:14:05.693Z,11.75
2019-05-23T05:16:32.575Z,11.70
2019-05-23T05:18:59.301Z,12.28
2019-05-23T05:21:28.307Z,12.37
2019-05-23T05:23:55.104Z,12.47
2019-05-23T05:26:22.098Z,12.10
2019-05-23T05:28:50.009Z,12.67
2019-05-23T05:31:17.036Z,13.14
2019-05-23T05:33:43.730Z,12.35
2019-05-23T05:36:10.434Z,13.41
2019-05-23T05:38:37.630Z,13.41
2019-05-23T05:41:05.235Z,13.91
2019-05-23T05:43:32.662Z,14.05
2019-05-23T05:45:59.403Z,14.18
2019-05-23T05:48:27.479Z,14.11
2019-05-23T05:50:55.037Z,14.55
2019-05-23T05:53:22.207Z,14.89
2019-05-23T05:55:48.980Z,15.23
2019-05-23T05:58:15.806Z,14.95
2019-05-23T06:00:53.198Z,15.07
2019-05-23T06:03:20.053Z,15.68
2019-05-23T06:05:56.915Z,15.85
2019-05-23T06:08:25.602Z,15.55
2019-05-23T06:10:52.564Z,16.52
2019-05-23T06:13:22.553Z,16.18
2019-05-23T06:15:50.669Z,16.40
2019-05-23T06:18:17.847Z,16.97
2019-05-23T06:20:46.491Z,17.34
2019-05-23T06:23:13.475Z,17.63
2019-05-23T06:25:40.346Z,17.44
2019-05-23T06:28:08.172Z,18.19
2019-05-23T06:30:37.531Z,18.04
2019-05-23T06:33:21.896Z,17.57
2019-05-23T06:35:34.034Z,17.69
2019-05-23T06:38:01.271Z,18.22
2019-05-23T06:40:28.700Z,18.46
2019-05-23T06:42:55.715Z,18.73
2019-05-23T06:45:22.519Z,18.08
2019-05-23T06:47:49.140Z,18.57
2019-05-23T06:50:18.946Z,19.22
2019-05-23T06:52:45.845Z,19.53
2019-05-23T06:55:12.502Z,19.60
2019-05-23T06:57:39.408Z,20.12
2019-05-23T07:00:07.468Z,20.13
2019-05-23T07:02:34.368Z,20.33
2019-05-23T07:05:02.208Z,18.61
2019-05-23T07:07:30.382Z,20.09
2019-05-23T07:09:57.414Z,19.07
2019-05-23T07:12:24.694Z,19.81
2019-05-23T07:14:51.531Z,21.30
2019-05-23T07:17:20.476Z,20.01
2019-05-23T07:19:47.168Z,20.62
2019-05-23T07:22:13.983Z,20.73
2019-05-23T07:24:56.927Z,21.57
2019-05-23T07:27:09.860Z,22.01
2019-05-23T07:29:36.944Z,22.26
2019-05-23T07:32:04.142Z,22.42
2019-05-23T07:34:31.290Z,22.15
2019-05-23T07:36:58.882Z,22.38
2019-05-23T07:41:52.543Z,21.70
2019-05-23T07:44:19.336Z,21.79
2019-05-23T07:46:46.200Z,22.40
2019-05-23T07:49:13.301Z,23.09
2019-05-23T07:51:40.147Z,21.98
2019-05-23T07:54:33.568Z,21.81
2019-05-23T07:57:03.124Z,23.02
2019-05-23T07:59:30.181Z,22.45
2019-05-23T08:02:13.045Z,23.21
2019-05-23T08:04:40.132Z,23.29
2019-05-23T08:07:08.650Z,22.37
2019-05-23T08:09:35.682Z,23.33
2019-05-23T08:12:02.460Z,23.50
2019-05-23T08:14:29.606Z,24.09
2019-05-23T08:16:57.018Z,23.53
2019-05-23T08:19:23.612Z,23.99
2019-05-23T08:21:51.366Z,23.56
2019-05-23T08:24:18.642Z,22.71
2019-05-23T08:26:45.750Z,22.92
2019-05-23T08:29:25.512Z,22.01
2019-05-23T08:31:41.996Z,23.21
2019-05-23T08:34:09.416Z,22.70
2019-05-23T08:36:36.299Z,22.68
2019-05-23T08:39:06.895Z,23.51
2019-05-23T08:41:33.801Z,24.39
2019-05-23T08:44:00.998Z,24.16
2019-05-23T08:46:28.474Z,24.29
2019-05-23T08:48:55.786Z,24.42
2019-05-23T08:51:22.427Z,24.19
2019-05-23T08:53:49.717Z,23.76
2019-05-23T08:56:19.542Z,23.38
2019-05-23T08:58:46.463Z,23.83
2019-05-23T09:01:14.700Z,23.58
2019-05-23T09:03:41.342Z,23.36
2019-05-23T09:06:08.347Z,22.92
2019-05-23T09:08:35.734Z,23.61
2019-05-23T09:11:02.625Z,24.41
2019-05-23T09:13:29.641Z,25.17
2019-05-23T09:15:56.972Z,24.95
2019-05-23T09:18:24.153Z,24.61
2019-05-23T09:20:51.190Z,25.43
2019-05-23T09:23:17.986Z,25.55
2019-05-23T09:25:44.774Z,24.78
2019-05-23T09:28:12.186Z,25.27
2019-05-23T09:30:38.968Z,24.63
2019-05-23T09:33:07.615Z,25.62
2019-05-23T09:35:35.184Z,24.77
2019-05-23T09:38:02.177Z,25.46
2019-05-23T09:40:29.108Z,26.26
2019-05-23T09:42:55.972Z,25.96
2019-05-23T09:45:23.097Z,25.96
2019-05-23T09:47:51.311Z,26.52
2019-05-23T09:50:21.696Z,26.27
2019-05-23T09:52:48.688Z,25.92
2019-05-23T09:55:16.686Z,25.76
2019-05-23T09:57:43.487Z,26.60
2019-05-23T10:00:14.647Z,26.41
2019-05-23T10:02:41.358Z,25.89
2019-05-23T10:05:09.695Z,26.63
2019-05-23T10:07:36.472Z,27.40
2019-05-23T10:10:03.472Z,26.99
2019-05-23T10:12:31.175Z,27.48
2019-05-23T10:14:57.973Z,27.37
2019-05-23T10:17:26.280Z,26.33
2019-05-23T10:19:52.951Z,26.49
2019-05-23T10:22:20.421Z,26.09
2019-05-23T10:24:47.041Z,27.27
2019-05-23T10:27:13.652Z,26.89
2019-05-23T10:29:40.444Z,28.15
2019-05-23T10:32:09.054Z,27.03
2019-05-23T10:34:35.769Z,27.21
2019-05-23T10:37:06.198Z,27.56
2019-05-23T10:39:33.268Z,27.49
2019-05-23T10:41:59.975Z,27.35
2019-05-23T10:44:26.679Z,27.08
2019-05-23T10:46:53.545Z,26.87
2019-05-23T10:49:20.363Z,27.56
2019-05-23T10:51:47.379Z,27.79
2019-05-23T10:54:14.157Z,27.14
2019-05-23T10:56:40.865Z,28.16
2019-05-23T10:59:07.657Z,27.06
2019-05-23T11:01:35.291Z,27.34
2019-05-23T11:04:02.531Z,27.92
2019-05-23T11:06:29.924Z,28.14
2019-05-23T11:08:56.882Z,26.46
2019-05-23T11:11:27.136Z,26.09
2019-05-23T11:13:54.025Z,26.57
2019-05-23T11:16:21.672Z,26.25
2019-05-23T11:18:48.262Z,25.30
2019-05-23T11:21:14.986Z,25.39
2019-05-23T11:23:47.168Z,26.16
2019-05-23T11:26:13.878Z,27.14
2019-05-23T11:28:40.884Z,26.95
2019-05-23T11:31:08.541Z,26.42
2019-05-23T11:33:35.230Z,26.43
2019-05-23T11:36:02.124Z,27.72
2019-05-23T11:38:29.452Z,28.21
2019-05-23T11:40:56.189Z,27.35
2019-05-23T11:43:22.886Z,27.64
2019-05-23T11:46:15.395Z,26.56
2019-05-23T11:48:42.132Z,26.85
2019-05-23T11:51:08.908Z,26.72
2019-05-23T11:53:35.630Z,27.15
2019-05-23T11:56:02.892Z,27.89
2019-05-23T11:58:32.614Z,27.06
2019-05-23T12:01:32.474Z,26.63
2019-05-23T12:04:04.812Z,26.12
2019-05-23T12:06:55.215Z,25.65
2019-05-23T12:09:13.457Z,25.94
2019-05-23T12:11:42.677Z,24.45
2019-05-23T12:14:09.880Z,25.00
2019-05-23T12:16:37.165Z,25.28
2019-05-23T12:19:05.346Z,24.83
2019-05-23T12:21:35.206Z,24.39
2019-05-23T12:24:02.016Z,23.70
2019-05-23T12:26:28.706Z,23.33
2019-05-23T12:28:55.828Z,25.69
2019-05-23T12:31:24.941Z,26.77
2019-05-23T12:33:53.845Z,26.11
2019-05-23T12:36:20.927Z,24.67
2019-05-23T12:38:47.807Z,23.91
2019-05-23T12:41:15.483Z,23.72
2019-05-23T12:43:42.173Z,23.77
2019-05-23T12:46:08.966Z,23.80
2019-05-23T12:49:10.431Z,23.92
2019-05-23T12:51:39.108Z,24.69
2019-05-23T12:54:05.869Z,23.98
2019-05-23T12:56:33.273Z,23.78
2019-05-23T12:59:02.052Z,24.11
2019-05-23T13:01:31.155Z,23.42
2019-05-23T13:03:57.859Z,25.30
2019-05-23T13:06:24.858Z,26.31
2019-05-23T13:08:51.881Z,25.37
2019-05-23T13:11:18.763Z,24.53
2019-05-23T13:13:45.467Z,23.63
2019-05-23T13:16:12.846Z,23.90
2019-05-23T13:18:39.544Z,25.08
2019-05-23T13:21:06.377Z,24.53
2019-05-23T13:23:34.049Z,24.52
2019-05-23T13:26:01.845Z,24.41
2019-05-23T13:28:28.650Z,24.52
2019-05-23T13:30:55.339Z,25.02
2019-05-23T13:33:22.101Z,24.43
2019-05-23T13:35:50.158Z,24.33
2019-05-23T13:38:16.960Z,24.71
2019-05-23T13:40:43.578Z,24.70
2019-05-23T13:43:10.201Z,24.78
2019-05-23T13:45:37.148Z,24.03
2019-05-23T13:48:04.318Z,23.41
2019-05-23T13:50:31.760Z,22.41
2019-05-23T13:52:59.159Z,23.55
2019-05-23T13:55:26.010Z,23.91
2019-05-23T13:57:52.879Z,24.43
2019-05-23T14:00:28.041Z,24.44
2019-05-23T14:02:54.948Z,23.87
2019-05-23T14:05:22.081Z,24.13
2019-05-23T14:07:49.259Z,23.84
2019-05-23T14:10:16.658Z,23.90
2019-05-23T14:12:48.083Z,23.25
2019-05-23T14:15:18.993Z,23.61
2019-05-23T14:17:47.209Z,23.71
2019-05-23T14:20:15.090Z,23.76
2019-05-23T14:22:50.852Z,23.99
2019-05-23T14:25:17.931Z,24.04
2019-05-23T14:28:06.096Z,24.36
2019-05-23T14:30:39.708Z,24.54
2019-05-23T14:33:11.952Z,23.99
2019-05-23T14:35:39.849Z,22.90
2019-05-23T14:38:08.274Z,23.34
2019-05-23T14:40:35.213Z,23.72
2019-05-23T14:43:13.007Z,23.81
2019-05-23T14:45:49.280Z,23.47
2019-05-23T14:48:23.442Z,23.62
2019-05-23T14:51:09.160Z,23.38
2019-05-23T14:53:38.481Z,23.14
2019-05-23T14:56:05.515Z,22.94
2019-05-23T14:58:32.318Z,22.81
2019-05-23T15:00:59.975Z,23.18
2019-05-23T15:03:26.725Z,23.72
2019-05-23T15:05:53.776Z,23.48
2019-05-23T15:08:21.152Z,23.86
2019-05-23T15:10:48.713Z,23.67
2019-05-23T15:13:15.340Z,23.99
2019-05-23T15:15:42.060Z,23.29
2019-05-23T15:18:09.144Z,22.68
2019-05-23T15:20:36.021Z,22.95
2019-05-23T15:23:03.137Z,22.81
2019-05-23T15:25:30.285Z,22.08
2019-05-23T15:27:57.078Z,22.43
2019-05-23T15:30:23.842Z,22.43
2019-05-23T15:32:50.673Z,22.80
2019-05-23T15:35:17.405Z,22.83
2019-05-23T15:37:44.228Z,23.13
2019-05-23T15:40:11.169Z,22.87
2019-05-23T15:42:37.840Z,22.58
2019-05-23T15:45:05.495Z,22.90
2019-05-23T15:47:34.485Z,22.29
2019-05-23T15:50:08.357Z,21.84
2019-05-23T15:52:48.246Z,22.33
2019-05-23T15:55:33.541Z,22.19
2019-05-23T15:58:29.893Z,21.77
2019-05-23T16:01:14.434Z,21.70
2019-05-23T16:03:44.117Z,22.37
2019-05-23T16:06:14.027Z,21.93
2019-05-23T16:08:41.703Z,21.87
2019-05-23T16:11:08.436Z,22.28
2019-05-23T16:13:35.453Z,21.95
2019-05-23T16:16:02.357Z,22.13
2019-05-23T16:18:29.435Z,22.06
2019-05-23T16:20:56.552Z,21.58
2019-05-23T16:23:23.542Z,21.66
2019-05-23T16:25:50.299Z,21.45
2019-05-23T16:28:16.872Z,21.46
2019-05-23T16:30:44.280Z,21.57
2019-05-23T16:33:11.081Z,21.72
2019-05-23T16:35:38.044Z,21.40
2019-05-23T16:38:04.770Z,21.51
2019-05-23T16:40:32.452Z,21.63
2019-05-23T16:42:59.246Z,21.88
2019-05-23T16:45:26.534Z,21.77
2019-05-23T16:47:53.199Z,22.01
2019-05-23T16:50:20.702Z,21.91
2019-05-23T16:52:47.928Z,21.33
2019-05-23T16:55:21.139Z,21.13
2019-05-23T16:57:56.017Z,20.89
2019-05-23T17:00:42.480Z,21.06
2019-05-23T17:03:17.511Z,21.07
2019-05-23T17:06:11.740Z,21.07
2019-05-23T17:09:04.091Z,21.36
2019-05-23T17:11:50.406Z,21.37
2019-05-23T17:14:25.304Z,20.87
2019-05-23T17:17:15.487Z,20.30
2019-05-23T17:19:47.548Z,20.65
2019-05-23T17:22:29.558Z,20.25
2019-05-23T17:25:14.603Z,19.98
2019-05-23T17:28:00.134Z,20.30
2019-05-23T17:30:35.053Z,20.78
2019-05-23T17:33:02.360Z,20.70
2019-05-23T17:35:29.128Z,20.70
2019-05-23T17:37:56.070Z,20.59
2019-05-23T17:40:25.336Z,20.77
2019-05-23T17:42:51.950Z,20.80
2019-05-23T17:45:19.290Z,20.96
2019-05-23T17:47:46.134Z,20.73
2019-05-23T17:50:12.768Z,20.54
2019-05-23T17:52:39.700Z,20.54
2019-05-23T17:55:06.677Z,20.18
2019-05-23T17:57:33.576Z,20.06
2019-05-23T18:00:00.975Z,19.94
2019-05-23T18:02:28.015Z,19.87
2019-05-23T18:04:55.170Z,19.66
2019-05-23T18:07:22.082Z,19.34
2019-05-23T18:09:49.530Z,19.31
2019-05-23T18:12:16.336Z,19.24
2019-05-23T18:14:43.422Z,19.07
2019-05-23T18:17:10.458Z,19.21
2019-05-23T18:19:37.945Z,19.11
2019-05-23T18:22:07.076Z,19.07
2019-05-23T18:24:33.945Z,19.01
2019-05-23T18:27:00.965Z,18.85
2019-05-23T18:29:28.273Z,18.88
2019-05-23T18:31:55.285Z,18.89
2019-05-23T18:34:23.042Z,18.83
2019-05-23T18:36:50.237Z,18.88
2019-05-23T18:39:18.406Z,18.64
2019-05-23T18:41:45.724Z,18.55
2019-05-23T18:44:13.479Z,18.57
2019-05-23T18:46:44.180Z,18.36
2019-05-23T18:49:11.189Z,18.33
2019-05-23T18:51:39.500Z,18.34
2019-05-23T18:54:06.322Z,18.27
2019-05-23T18:56:33.111Z,18.17
2019-05-23T18:59:00.618Z,18.12
2019-05-23T19:01:27.624Z,17.96
2019-05-23T19:03:54.954Z,17.86
2019-05-23T19:06:23.395Z,17.90
2019-05-23T19:08:51.166Z,17.88
2019-05-23T19:11:21.135Z,17.60
2019-05-23T19:13:47.523Z,17.51
2019-05-23T19:16:14.249Z,17.47
2019-05-23T19:18:41.221Z,17.32
2019-05-23T19:21:09.778Z,17.25
2019-05-23T19:23:36.896Z,17.20
2019-05-23T19:26:04.112Z,17.18
2019-05-23T19:28:31.192Z,17.05
2019-05-23T19:30:58.761Z,17.01
2019-05-23T19:33:25.732Z,16.92
2019-05-23T19:35:52.681Z,16.79
2019-05-23T19:38:19.515Z,16.86
2019-05-23T19:40:46.485Z,16.72
2019-05-23T19:43:14.943Z,16.69
2019-05-23T19:45:41.843Z,16.58
2019-05-23T19:48:08.716Z,16.46
2019-05-23T19:50:36.584Z,16.47
2019-05-23T19:53:03.550Z,16.32
2019-05-23T19:55:31.192Z,16.30
2019-05-23T19:57:57.892Z,16.25
2019-05-23T20:00:26.705Z,16.18
2019-05-23T20:02:54.562Z,16.06
2019-05-23T20:05:26.196Z,16.09
2019-05-23T20:07:53.444Z,16.10
2019-05-23T20:10:21.634Z,15.88
2019-05-23T20:12:48.674Z,15.73
2019-05-23T20:15:15.552Z,15.64
2019-05-23T20:17:42.251Z,15.63
2019-05-23T20:20:09.040Z,15.71
2019-05-23T20:22:35.695Z,15.58
2019-05-23T20:25:02.655Z,15.52
2019-05-23T20:27:30.457Z,15.64
2019-05-23T20:29:57.077Z,15.56
2019-05-23T20:32:24.087Z,15.47
2019-05-23T20:34:50.795Z,15.59
2019-05-23T20:37:19.428Z,15.48
2019-05-23T20:39:46.185Z,15.31
2019-05-23T20:42:14.706Z,15.32
2019-05-23T20:44:41.723Z,15.41
2019-05-23T20:47:08.771Z,15.26
2019-05-23T20:49:35.847Z,15.23
2019-05-23T20:52:02.487Z,14.91
2019-05-23T20:54:29.118Z,15.00
2019-05-23T20:56:55.784Z,15.12
2019-05-23T20:59:23.595Z,15.10
2019-05-23T21:01:51.360Z,15.03
2019-05-23T21:04:18.215Z,14.96
2019-05-23T21:06:44.874Z,14.96
2019-05-23T21:09:15.579Z,14.92
2019-05-23T21:11:40.814Z,14.89
2019-05-23T21:14:07.613Z,14.87
2019-05-23T21:16:34.258Z,14.53
2019-05-23T21:19:00.892Z,13.91
2019-05-23T21:21:27.948Z,13.12
2019-05-23T21:23:57.032Z,13.30
2019-05-23T21:26:24.534Z,13.49
2019-05-23T21:28:51.897Z,13.34
2019-05-23T21:31:21.250Z,13.50
2019-05-23T21:33:48.265Z,13.32
2019-05-23T21:36:15.217Z,13.68
2019-05-23T21:38:41.981Z,13.85
2019-05-23T21:41:10.249Z,13.83
2019-05-23T21:43:36.962Z,14.01
2019-05-23T21:46:08.582Z,13.87
2019-05-23T21:48:37.627Z,13.98
2019-05-23T21:51:04.416Z,13.92
2019-05-23T21:53:31.754Z,13.74
2019-05-23T21:55:58.540Z,13.71
2019-05-23T21:58:25.376Z,13.57
2019-05-23T22:01:39.660Z,13.57
2019-05-23T22:04:25.241Z,13.57
2019-05-23T22:06:55.881Z,13.11
2019-05-23T22:09:24.078Z,13.03
2019-05-23T22:11:52.421Z,13.05
2019-05-23T22:14:19.885Z,13.39
2019-05-23T22:16:47.074Z,13.19
2019-05-23T22:19:17.928Z,13.23
2019-05-23T22:21:44.603Z,13.01
2019-05-23T22:24:14.230Z,13.34
2019-05-23T22:26:43.901Z,13.07
2019-05-23T22:29:10.700Z,13.33
2019-05-23T22:31:37.663Z,13.52
2019-05-23T22:34:22.949Z,13.33
2019-05-23T22:36:49.697Z,13.25
2019-05-23T22:39:16.697Z,13.33
2019-05-23T22:41:43.418Z,13.42
2019-05-23T22:44:10.147Z,13.15
2019-05-23T22:46:38.289Z,13.07
2019-05-23T22:49:05.153Z,13.23
2019-05-23T22:51:31.809Z,13.29
2019-05-23T22:53:58.478Z,13.11
2019-05-23T22:56:25.333Z,12.96
2019-05-23T22:58:52.067Z,13.12
2019-05-23T23:01:20.496Z,12.79
2019-05-23T23:03:47.597Z,12.55
2019-05-23T23:06:15.174Z,13.03
2019-05-23T23:08:41.961Z,12.66
2019-05-23T23:11:09.278Z,12.66
2019-05-23T23:13:39.062Z,12.80
2019-05-23T23:16:05.117Z,12.61
2019-05-23T23:18:32.007Z,12.61
2019-05-23T23:20:58.569Z,12.65
2019-05-23T23:23:25.450Z,12.59
2019-05-23T23:25:52.249Z,12.70
2019-05-23T23:28:19.045Z,12.78
2019-05-23T23:30:47.052Z,12.54
2019-05-23T23:33:13.658Z,12.50
2019-05-23T23:35:40.276Z,12.57
2019-05-23T23:38:07.300Z,12.50
2019-05-23T23:40:34.109Z,12.44
2019-05-23T23:43:00.725Z,12.39
2019-05-23T23:45:45.955Z,12.15
2019-05-23T23:48:32.172Z,12.15
2019-05-23T23:51:17.522Z,12.03
2019-05-23T23:54:02.669Z,12.00
2019-05-23T23:56:48.144Z,12.32
2019-05-23T23:59:14.559Z,12.36
